Time;durP1;ratioP1;P1;durP2;ratioP2;P2;SDS_P1;SDS_P2;PMS_P1;PMS_P2;Temp;Humidity;BMP_temperature;BMP_pressure;BME280_temperature;BME280_humidity;BME280_pressure;Samples;Min_cycle;Max_cycle;Signal;HPM_P1;HPM_P2
2022/04/13 00:00:29;;;;;;;10.60;7.23;;;8.20;61.20;;;8.16;48.61;95193.34;5054182;28;20570;-56
2022/04/13 00:02:56;;;;;;;18.50;9.30;;;8.20;62.00;;;8.10;47.92;95186.78;5059215;28;20458;-55
2022/04/13 00:05:23;;;;;;;19.20;9.33;;;8.20;61.40;;;8.05;48.48;95194.16;5058423;28;20851;-55
2022/04/13 00:07:52;;;;;;;16.13;9.90;;;8.10;62.00;;;8.00;48.69;95186.66;5056719;28;20459;-55
2022/04/13 00:10:19;;;;;;;20.73;9.40;;;8.10;62.00;;;7.96;48.75;95192.22;5044793;28;20537;-55
2022/04/13 00:12:47;;;;;;;12.73;8.30;;;8.00;61.90;;;7.93;47.99;95189.84;5051693;28;20521;-56
2022/04/13 00:15:14;;;;;;;17.30;8.97;;;8.00;61.90;;;7.90;48.43;95186.50;5051795;28;20486;-55
2022/04/13 00:17:41;;;;;;;18.87;9.07;;;7.90;61.80;;;7.86;48.51;95184.25;5057963;28;20494;-57
2022/04/13 00:20:10;;;;;;;26.90;9.80;;;7.90;62.60;;;7.82;48.35;95188.88;5054503;28;20742;-56
2022/04/13 00:22:37;;;;;;;15.83;9.10;;;7.90;62.00;;;7.78;48.13;95184.00;5055259;28;20463;-55
2022/04/13 00:25:07;;;;;;;26.40;9.90;;;7.80;62.40;;;7.74;48.95;95191.22;5056384;28;20479;-57
2022/04/13 00:27:34;;;;;;;17.90;9.27;;;7.80;63.30;;;7.73;48.91;95189.56;5052711;28;20464;-57
2022/04/13 00:30:02;;;;;;;16.40;8.37;;;7.70;63.80;;;7.69;48.50;95183.72;5052347;28;20475;-56
2022/04/13 00:32:29;;;;;;;15.60;8.60;;;7.70;63.40;;;7.67;48.48;95185.63;5051933;28;20730;-57
2022/04/13 00:34:57;;;;;;;15.63;7.93;;;7.70;63.40;;;7.63;49.39;95186.78;5053170;28;20506;-55
2022/04/13 00:37:25;;;;;;;11.30;7.67;;;7.70;64.00;;;7.63;49.14;95186.78;5060331;28;20899;-54
2022/04/13 00:39:53;;;;;;;20.63;10.30;;;7.70;64.20;;;7.61;49.60;95195.72;5061292;28;20478;-58
2022/04/13 00:42:22;;;;;;;20.47;9.00;;;7.60;64.10;;;7.60;48.91;95191.44;5060690;28;20473;-57
2022/04/13 00:44:49;;;;;;;14.30;8.87;;;7.60;64.40;;;7.59;49.44;95187.13;5058471;28;20492;-55
2022/04/13 00:47:18;;;;;;;13.00;8.13;;;7.60;64.60;;;7.57;49.66;95189.84;5057299;28;20456;-55
2022/04/13 00:49:45;;;;;;;22.53;8.87;;;7.60;65.30;;;7.54;49.24;95183.09;5054100;28;20490;-56
2022/04/13 00:52:13;;;;;;;14.10;7.27;;;7.60;64.80;;;7.52;49.32;95187.56;5056681;28;20994;-56
2022/04/13 00:54:43;;;;;;;26.97;7.43;;;7.60;65.20;;;7.51;50.36;95195.53;5057041;28;20490;-56
2022/04/13 00:57:11;;;;;;;21.03;8.53;;;7.60;65.80;;;7.48;49.26;95196.63;5057492;28;20893;-56
2022/04/13 00:59:40;;;;;;;14.50;8.27;;;7.50;65.10;;;7.46;48.92;95193.25;5057971;28;20490;-53
2022/04/13 01:02:08;;;;;;;14.10;7.93;;;7.50;64.90;;;7.42;49.34;95191.84;5059088;28;20835;-55
2022/04/13 01:04:36;;;;;;;16.13;7.67;;;7.50;65.50;;;7.38;49.97;95190.38;5060479;28;20468;-54
2022/04/13 01:07:05;;;;;;;14.93;7.90;;;7.40;66.10;;;7.36;49.60;95208.00;5062176;28;20462;-56
2022/04/13 01:09:32;;;;;;;22.17;8.47;;;7.40;65.70;;;7.32;49.95;95196.06;5055413;28;20465;-56
2022/04/13 01:11:59;;;;;;;17.03;9.33;;;7.40;66.40;;;7.28;49.88;95199.84;5056382;28;20454;-56
2022/04/13 01:14:27;;;;;;;12.57;7.73;;;7.30;66.30;;;7.24;49.87;95194.00;5051217;28;20464;-56
2022/04/13 01:16:55;;;;;;;13.30;7.73;;;7.30;66.20;;;7.20;49.98;95195.16;5054492;28;20470;-56
2022/04/13 01:19:23;;;;;;;19.57;8.77;;;7.30;66.60;;;7.16;50.42;95197.19;5053222;28;20495;-56
2022/04/13 01:21:58;;;;;;;15.10;8.43;;;7.20;67.60;;;7.13;50.87;95196.56;5057158;28;20459;-56
2022/04/13 01:24:29;;;;;;;14.50;7.50;;;7.20;67.60;;;7.09;50.29;95190.72;5059698;28;20533;-57
2022/04/13 01:26:56;;;;;;;13.27;7.70;;;7.10;67.10;;;7.05;50.58;95194.50;5059091;28;20455;-58
2022/04/13 01:29:23;;;;;;;15.50;7.37;;;7.10;67.50;;;7.01;50.41;95198.28;5057108;28;20459;-58
2022/04/13 01:31:53;;;;;;;18.73;8.63;;;7.10;67.50;;;6.97;50.86;95192.44;5061912;28;20901;-57
2022/04/13 01:34:21;;;;;;;12.60;8.17;;;7.00;67.40;;;6.90;50.42;95188.59;5054236;28;20841;-55
2022/04/13 01:36:48;;;;;;;22.50;8.57;;;7.00;67.80;;;6.91;50.71;95189.41;5053974;28;20995;-53
2022/04/13 01:39:16;;;;;;;17.40;7.60;;;7.00;68.40;;;6.88;50.71;95192.25;5062346;28;20531;-55
2022/04/13 01:41:44;;;;;;;14.93;7.70;;;7.00;67.90;;;6.84;50.93;95198.66;5064007;28;20459;-55
2022/04/13 01:44:13;;;;;;;14.80;7.60;;;6.90;68.20;;;6.80;50.59;95201.50;5058237;28;20993;-54
2022/04/13 01:46:40;;;;;;;9.70;6.50;;;6.90;68.30;;;6.76;50.42;95192.19;5055574;28;20499;-55
2022/04/13 01:49:08;;;;;;;17.77;7.70;;;6.80;67.90;;;6.74;50.81;95196.69;5056404;28;20559;-56
2022/04/13 01:51:36;;;;;;;11.40;7.17;;;6.80;67.70;;;6.72;50.53;95197.72;5058000;28;21030;-55
2022/04/13 01:54:05;;;;;;;22.80;7.60;;;6.80;67.80;;;6.67;50.56;95192.84;5055590;28;20723;-55
2022/04/13 01:56:32;;;;;;;10.37;7.50;;;6.80;67.60;;;6.62;50.90;95187.09;5053923;28;20482;-55
2022/04/13 01:59:01;;;;;;;12.60;7.07;;;6.70;67.80;;;6.57;51.09;95195.25;5054344;28;20497;-56
2022/04/13 02:01:29;;;;;;;9.90;7.37;;;6.70;68.00;;;6.53;50.44;95196.41;5054545;28;20486;-57
2022/04/13 02:03:56;;;;;;;8.37;6.30;;;6.60;67.90;;;6.50;50.97;95198.41;5059564;28;20459;-55
2022/04/13 02:06:24;;;;;;;11.33;6.70;;;6.60;68.10;;;6.45;50.58;95199.56;5055813;28;20487;-56
2022/04/13 02:08:51;;;;;;;8.20;6.50;;;6.60;68.30;;;6.41;50.87;95192.91;5055924;28;20459;-53
2022/04/13 02:11:18;;;;;;;12.00;7.50;;;6.50;68.30;;;6.36;50.79;95194.97;5058824;28;20997;-55
2022/04/13 02:13:45;;;;;;;12.33;7.10;;;6.50;68.80;;;6.34;50.83;95194.25;5056080;28;20460;-54
2022/04/13 02:16:14;;;;;;;17.63;6.60;;;6.40;68.70;;;6.28;50.97;95181.63;5051079;28;20483;-55
2022/04/13 02:18:41;;;;;;;9.60;6.70;;;6.40;69.00;;;6.30;51.40;95191.94;5052448;28;21053;-53
2022/04/13 02:21:08;;;;;;;13.10;7.50;;;6.40;69.00;;;6.27;51.13;95185.16;5048443;28;20472;-56
2022/04/13 02:23:36;;;;;;;7.40;5.30;;;6.40;69.00;;;6.25;51.16;95195.72;5054599;28;20571;-56
2022/04/13 02:26:03;;;;;;;10.37;5.90;;;6.30;68.90;;;6.24;51.47;95190.59;5057895;28;20483;-55
2022/04/13 02:28:30;;;;;;;9.00;5.80;;;6.30;69.80;;;6.23;51.46;95188.94;5058070;28;20487;-56
2022/04/13 02:30:57;;;;;;;9.00;6.70;;;6.30;69.30;;;6.23;51.45;95192.38;5057309;28;20475;-57
2022/04/13 02:33:26;;;;;;;9.00;6.73;;;6.30;70.10;;;6.22;51.45;95195.09;5056243;28;20451;-54
2022/04/13 02:35:54;;;;;;;11.53;6.00;;;6.30;70.00;;;6.21;51.56;95188.19;5061324;28;20493;-56
2022/04/13 02:38:22;;;;;;;9.33;5.73;;;6.30;70.00;;;6.22;51.96;95184.66;5055204;28;20502;-55
2022/04/13 02:40:50;;;;;;;9.93;5.80;;;6.30;70.10;;;6.21;52.01;95177.75;5049908;28;20467;-55
2022/04/13 02:43:17;;;;;;;11.37;6.07;;;6.30;70.90;;;6.20;51.81;95187.38;5059655;28;20458;-56
2022/04/13 02:45:44;;;;;;;9.60;6.00;;;6.30;71.10;;;6.20;52.33;95183.94;5055731;28;20482;-55
2022/04/13 02:48:12;;;;;;;6.40;5.70;;;6.30;71.30;;;6.20;51.98;95186.53;5055368;28;20538;-54
2022/04/13 02:50:40;;;;;;;9.33;5.80;;;6.30;71.00;;;6.20;52.36;95189.16;5056721;28;20840;-55
2022/04/13 02:53:07;;;;;;;12.17;5.20;;;6.30;71.60;;;6.22;51.79;95184.66;5056591;28;20979;-55
2022/04/13 02:55:35;;;;;;;13.43;6.13;;;6.30;71.00;;;6.20;52.11;95176.91;5053375;28;21092;-54
2022/04/13 02:58:02;;;;;;;9.07;6.23;;;6.30;71.30;;;6.24;51.98;95187.97;5052149;28;20466;-56
2022/04/13 03:00:30;;;;;;;8.07;5.97;;;6.30;71.60;;;6.23;52.00;95179.31;5049454;28;20901;-55
2022/04/13 03:02:57;;;;;;;10.70;5.07;;;6.30;71.80;;;6.23;52.22;95181.09;5055534;28;20494;-56
2022/04/13 03:05:24;;;;;;;7.63;4.90;;;6.30;71.50;;;6.24;51.97;95182.75;5056604;28;20565;-56
2022/04/13 03:07:53;;;;;;;7.23;5.50;;;6.30;71.30;;;6.25;51.87;95195.72;5060222;28;20463;-55
2022/04/13 03:10:20;;;;;;;5.40;4.90;;;6.30;71.20;;;6.28;51.90;95189.44;5055613;28;21103;-56
2022/04/13 03:12:48;;;;;;;10.20;5.53;;;6.30;71.10;;;6.30;51.75;95197.19;5056933;28;20980;-56
2022/04/13 03:15:15;;;;;;;12.27;5.83;;;6.40;70.70;;;6.30;51.49;95192.78;5058409;28;20540;-56
2022/04/13 03:17:42;;;;;;;10.93;4.87;;;6.40;70.60;;;6.33;51.19;95192.56;5052344;28;20463;-56
2022/04/13 03:20:11;;;;;;;6.90;4.53;;;6.40;70.60;;;6.36;51.51;95197.59;5061524;28;21011;-55
2022/04/13 03:22:39;;;;;;;12.70;5.17;;;6.40;70.60;;;6.38;51.60;95195.72;5051664;28;20463;-55
2022/04/13 03:25:09;;;;;;;9.10;4.60;;;6.40;70.50;;;6.41;51.81;95199.88;5050673;28;20478;-56
2022/04/13 03:27:37;;;;;;;9.60;4.60;;;6.50;70.80;;;6.43;52.01;95190.19;5052222;28;20460;-56
2022/04/13 03:30:05;;;;;;;11.30;5.70;;;6.50;71.10;;;6.43;51.57;95198.84;5054602;28;20485;-55
2022/04/13 03:32:37;;;;;;;7.13;4.73;;;6.50;70.80;;;6.44;51.58;95189.22;5056904;28;20458;-57
2022/04/13 03:35:06;;;;;;;8.93;5.20;;;6.50;70.40;;;6.45;51.85;95185.66;5056247;28;20501;-57
2022/04/13 03:37:34;;;;;;;5.93;5.00;;;6.50;70.80;;;6.45;51.75;95191.72;5053510;28;20468;-55
2022/04/13 03:40:01;;;;;;;16.20;7.03;;;6.50;71.00;;;6.46;51.64;95193.41;5055085;28;20495;-54
2022/04/13 03:42:34;;;;;;;11.50;6.43;;;6.50;70.80;;;6.45;51.52;95189.09;5052453;28;21760;-56
2022/04/13 03:45:04;;;;;;;23.73;7.00;;;6.50;71.10;;;6.44;51.85;95194.44;5049513;28;20483;-53
2022/04/13 03:47:31;;;;;;;16.43;7.43;;;6.50;71.10;;;6.41;51.64;95200.72;5052313;28;20467;-58
2022/04/13 03:49:59;;;;;;;11.33;6.77;;;6.50;71.20;;;6.39;51.79;95210.44;5054410;28;20914;-55
2022/04/13 03:52:26;;;;;;;16.40;6.40;;;6.50;71.80;;;6.37;51.96;95212.31;5055593;28;20447;-54
2022/04/13 03:54:53;;;;;;;10.13;5.83;;;6.50;72.10;;;6.37;52.15;95211.50;5057678;28;20486;-54
2022/04/13 03:57:21;;;;;;;10.27;6.10;;;6.40;71.60;;;6.36;52.31;95217.66;5054758;28;20459;-55
2022/04/13 03:59:50;;;;;;;12.10;6.60;;;6.40;72.30;;;6.35;51.98;95213.38;5058470;28;20913;-53
2022/04/13 04:02:17;;;;;;;11.10;7.10;;;6.50;72.10;;;6.35;52.23;95210.75;5050312;28;20455;-53
2022/04/13 04:04:44;;;;;;;15.17;6.07;;;6.40;73.40;;;6.35;52.62;95215.97;5058890;28;20476;-55
2022/04/13 04:07:12;;;;;;;10.10;6.50;;;6.40;72.80;;;6.34;52.63;95220.38;5050537;28;20448;-55
2022/04/13 04:09:39;;;;;;;12.63;6.17;;;6.40;72.80;;;6.34;52.31;95223.00;5055640;28;20494;-56
2022/04/13 04:12:08;;;;;;;9.43;5.90;;;6.40;72.20;;;6.37;52.84;95229.78;5056361;28;20488;-55
2022/04/13 04:14:35;;;;;;;11.30;6.03;;;6.40;73.20;;;6.41;52.57;95232.09;5061233;28;20986;-56
2022/04/13 04:17:04;;;;;;;13.77;5.63;;;6.50;72.60;;;6.42;51.80;95233.72;5061496;28;20454;-56
2022/04/13 04:19:31;;;;;;;14.43;6.37;;;6.50;71.80;;;6.40;52.11;95240.03;5058233;28;20500;-56
2022/04/13 04:21:59;;;;;;;4.83;4.43;;;6.50;71.80;;;6.33;52.20;95241.38;5059914;28;20995;-55
2022/04/13 04:24:27;;;;;;;6.20;4.40;;;6.40;72.50;;;6.27;51.84;95240.88;5061370;28;20451;-56
2022/04/13 04:26:54;;;;;;;11.83;5.57;;;6.40;71.60;;;6.23;51.80;95249.00;5061255;28;20693;-57
2022/04/13 04:29:22;;;;;;;10.00;5.00;;;6.30;71.30;;;6.19;51.95;95240.53;5062150;28;20458;-54
2022/04/13 04:31:53;;;;;;;18.63;6.00;;;6.30;71.30;;;6.19;52.49;95248.38;5063619;28;20959;-57
2022/04/13 04:34:24;;;;;;;9.90;5.67;;;6.30;72.30;;;6.16;52.10;95259.00;5062162;28;20482;-55
2022/04/13 04:36:51;;;;;;;13.83;6.07;;;6.20;71.90;;;6.13;52.36;95263.63;5060031;28;20462;-56
2022/04/13 04:39:18;;;;;;;17.93;5.50;;;6.20;72.50;;;6.15;52.34;95269.56;5060125;28;20491;-55
2022/04/13 04:41:47;;;;;;;10.13;5.40;;;6.20;71.90;;;6.16;52.04;95273.84;5063013;28;20529;-56
2022/04/13 04:44:14;;;;;;;15.23;5.33;;;6.20;71.60;;;6.16;51.69;95277.28;5054518;28;20459;-55
2022/04/13 04:46:41;;;;;;;17.43;5.00;;;6.20;71.40;;;6.27;51.79;95279.19;5053301;28;20456;-57
2022/04/13 04:49:08;;;;;;;7.83;5.00;;;6.30;71.40;;;6.41;51.22;95286.09;5062868;28;20459;-55
2022/04/13 04:51:38;;;;;;;7.60;5.43;;;6.40;70.60;;;6.50;50.94;95292.47;5055756;28;20544;-55
2022/04/13 04:54:05;;;;;;;10.37;4.10;;;6.50;70.20;;;6.53;50.85;95297.50;5059968;28;20758;-56
2022/04/13 04:56:34;;;;;;;8.60;4.70;;;6.60;69.50;;;6.51;50.47;95291.56;5058114;28;20552;-55
2022/04/13 04:59:01;;;;;;;14.77;5.10;;;6.60;69.30;;;6.51;50.19;95291.56;5059118;28;21053;-56
2022/04/13 05:01:28;;;;;;;4.87;4.30;;;6.60;68.90;;;6.50;50.50;95300.31;5061231;28;20539;-55
2022/04/13 05:03:55;;;;;;;9.53;3.93;;;6.60;68.80;;;6.50;50.23;95292.47;5060678;28;20459;-54
2022/04/13 05:06:25;;;;;;;25.63;4.47;;;6.60;68.80;;;6.53;50.02;95302.72;5054250;28;20497;-58
2022/04/13 05:08:55;;;;;;;4.47;4.03;;;6.60;68.60;;;6.54;50.18;95307.84;5058646;28;20555;-54
2022/04/13 05:11:23;;;;;;;8.90;4.30;;;6.60;68.60;;;6.57;50.23;95304.19;5055711;28;20468;-57
2022/04/13 05:13:51;;;;;;;14.63;4.27;;;6.60;68.30;;;6.58;50.14;95311.94;5058623;28;20452;-56
2022/04/13 05:16:19;;;;;;;6.40;4.60;;;6.70;68.70;;;6.60;50.51;95303.97;5061567;28;20491;-56
2022/04/13 05:18:46;;;;;;;13.23;4.70;;;6.70;68.70;;;6.64;50.20;95311.50;5060812;28;20458;-56
2022/04/13 05:21:14;;;;;;;4.80;3.93;;;6.70;68.30;;;6.68;49.85;95301.69;5060945;28;20474;-57
2022/04/13 05:23:42;;;;;;;13.07;5.50;;;6.70;68.40;;;6.71;50.42;95298.84;5061368;28;20505;-56
2022/04/13 05:26:11;;;;;;;21.03;6.20;;;6.70;68.30;;;6.76;50.30;95299.38;5057719;28;21066;-56
2022/04/13 05:28:38;;;;;;;14.13;6.53;;;6.80;68.80;;;6.80;50.58;95311.28;5061289;28;20856;-55
2022/04/13 05:31:06;;;;;;;17.50;7.00;;;6.80;69.30;;;6.88;50.22;95302.06;5053859;28;21005;-55
2022/04/13 05:33:33;;;;;;;11.17;6.27;;;6.80;68.80;;;6.96;50.38;95311.06;5054428;28;20583;-56
2022/04/13 05:36:01;;;;;;;12.23;7.70;;;6.90;69.50;;;7.10;51.35;95315.31;5059908;28;20495;-55
2022/04/13 05:38:28;;;;;;;18.43;6.60;;;7.00;70.30;;;7.27;50.67;95313.31;5057729;28;20854;-56
2022/04/13 05:40:55;;;;;;;9.67;6.20;;;7.20;69.90;;;7.51;50.36;95305.47;5057230;28;20500;-55
2022/04/13 05:43:24;;;;;;;12.83;6.70;;;7.40;70.00;;;7.78;49.87;95304.44;5061382;28;20516;-54
2022/04/13 05:45:51;;;;;;;11.43;5.73;;;7.60;69.40;;;8.04;49.41;95307.75;5059858;28;21122;-56
2022/04/13 05:48:18;;;;;;;13.33;7.07;;;7.90;68.90;;;8.33;49.71;95305.56;5062531;28;20483;-58
2022/04/13 05:50:46;;;;;;;10.67;5.83;;;8.10;68.50;;;8.59;48.68;95308.88;5055558;28;20472;-57
2022/04/13 05:53:13;;;;;;;8.00;5.80;;;8.40;67.20;;;8.86;48.26;95304.25;5052132;28;20451;-57
2022/04/13 05:55:41;;;;;;;17.80;6.83;;;8.70;66.90;;;9.17;48.13;95307.13;5052348;28;20478;-55
2022/04/13 05:58:08;;;;;;;11.77;6.13;;;8.90;66.50;;;9.48;47.64;95300.25;5055144;28;20454;-56
2022/04/13 06:00:39;;;;;;;31.97;7.20;;;9.30;65.40;;;9.79;47.39;95308.31;5060440;28;20509;-56
2022/04/13 06:03:06;;;;;;;18.93;7.07;;;9.50;64.80;;;10.11;47.02;95302.22;5058754;28;20528;-56
2022/04/13 06:05:33;;;;;;;12.80;6.13;;;9.90;64.80;;;10.45;47.26;95317.88;5058335;28;20479;-57
2022/04/13 06:08:01;;;;;;;12.67;7.73;;;10.20;64.10;;;10.82;46.63;95317.41;5055716;28;20680;-57
2022/04/13 06:10:28;;;;;;;10.20;6.13;;;10.50;64.00;;;11.14;45.45;95309.41;5056800;28;20468;-57
2022/04/13 06:12:55;;;;;;;9.00;5.00;;;10.90;60.30;;;11.43;44.87;95313.91;5050845;28;20448;-56
2022/04/13 06:15:22;;;;;;;20.77;5.87;;;11.10;58.90;;;11.67;44.27;95316.22;5056560;28;20496;-56
2022/04/13 06:17:51;;;;;;;6.40;5.73;;;11.40;58.10;;;11.93;43.86;95313.06;5052899;28;20476;-56
2022/04/13 06:20:18;;;;;;;10.93;5.93;;;11.70;57.30;;;12.18;43.48;95307.28;5054674;28;20499;-55
2022/04/13 06:22:46;;;;;;;17.00;7.43;;;11.90;56.70;;;12.47;42.93;95311.72;5057416;28;20469;-56
2022/04/13 06:25:13;;;;;;;10.53;7.17;;;12.20;56.10;;;12.70;42.63;95311.38;5060214;28;20478;-57
2022/04/13 06:27:40;;;;;;;9.80;5.80;;;12.40;55.20;;;12.88;42.28;95314.13;5058659;28;20512;-56
2022/04/13 06:30:09;;;;;;;12.33;7.00;;;12.60;54.50;;;13.05;41.58;95304.63;5060590;28;20713;-54
2022/04/13 06:32:37;;;;;;;10.27;6.57;;;12.80;53.50;;;13.13;41.18;95311.84;5058632;28;20659;-54
2022/04/13 06:35:08;;;;;;;13.50;7.20;;;12.90;52.80;;;13.33;41.47;95312.59;5052714;28;20478;-57
2022/04/13 06:37:35;;;;;;;25.07;7.87;;;13.00;53.10;;;13.58;40.49;95317.22;5052369;28;20972;-57
2022/04/13 06:40:03;;;;;;;21.77;7.87;;;13.20;51.70;;;13.78;40.12;95304.72;5059852;28;20495;-56
2022/04/13 06:42:33;;;;;;;11.50;6.90;;;13.50;51.70;;;14.02;40.43;95310.41;5059234;28;20537;-58
2022/04/13 06:45:01;;;;;;;19.27;8.57;;;13.70;51.40;;;14.24;39.82;95309.16;5057321;28;20466;-58
2022/04/13 06:47:29;;;;;;;25.60;8.90;;;13.90;50.60;;;14.46;40.07;95310.50;5054557;28;20499;-55
2022/04/13 06:49:56;;;;;;;25.83;9.23;;;14.10;51.10;;;14.73;39.06;95314.84;5062677;28;20475;-56
2022/04/13 06:52:25;;;;;;;18.70;9.73;;;14.40;50.00;;;15.02;38.88;95313.72;5059051;28;20505;-56
2022/04/13 06:54:52;;;;;;;20.17;10.50;;;14.60;49.80;;;15.28;37.98;95311.06;5048108;28;20472;-56
2022/04/13 06:57:19;;;;;;;31.27;10.20;;;14.90;48.70;;;15.53;37.89;95314.66;5060763;28;20510;-57
2022/04/13 06:59:47;;;;;;;29.50;10.07;;;15.20;48.40;;;15.72;37.68;95310.94;5057020;28;21006;-56
2022/04/13 07:02:14;;;;;;;20.00;9.20;;;15.40;48.10;;;15.94;37.42;95311.31;5056751;28;20447;-56
2022/04/13 07:04:41;;;;;;;11.60;7.73;;;15.60;47.70;;;16.17;36.97;95311.53;5058640;28;20483;-56
2022/04/13 07:07:08;;;;;;;14.87;8.90;;;15.80;47.10;;;16.33;36.44;95307.25;5057052;28;20455;-55
2022/04/13 07:09:37;;;;;;;12.33;8.10;;;15.90;45.90;;;16.46;35.90;95308.41;5059538;28;20456;-56
2022/04/13 07:12:06;;;;;;;12.43;8.40;;;16.10;45.50;;;16.61;36.26;95318.41;5051251;28;20529;-57
2022/04/13 07:14:33;;;;;;;18.20;8.00;;;16.20;46.00;;;16.83;35.86;95303.59;5054510;28;20458;-56
2022/04/13 07:17:00;;;;;;;11.90;7.30;;;16.50;45.40;;;17.01;35.21;95308.78;5053570;28;20809;-55
2022/04/13 07:19:27;;;;;;;13.17;7.80;;;16.60;44.70;;;17.16;35.25;95308.91;5057913;28;21056;-55
2022/04/13 07:21:55;;;;;;;16.63;7.83;;;16.80;44.90;;;17.32;34.83;95311.53;5056432;28;20455;-57
2022/04/13 07:24:23;;;;;;;14.63;7.50;;;17.00;44.40;;;17.60;34.79;95311.09;5057336;28;21018;-54
2022/04/13 07:26:51;;;;;;;14.90;9.37;;;17.20;43.40;;;17.94;33.87;95311.78;5053036;28;20459;-56
2022/04/13 07:29:19;;;;;;;13.57;7.80;;;17.50;43.00;;;18.22;34.18;95312.97;5058101;28;20452;-56
2022/04/13 07:31:46;;;;;;;17.40;7.93;;;17.80;43.20;;;18.59;33.62;95313.19;5052443;28;20462;-56
2022/04/13 07:34:13;;;;;;;12.20;7.50;;;18.10;42.70;;;18.92;32.48;95313.78;5049271;28;20454;-56
2022/04/13 07:36:40;;;;;;;15.90;6.60;;;18.50;42.00;;;19.16;32.51;95312.72;5059482;28;20471;-56
2022/04/13 07:39:08;;;;;;;16.87;7.73;;;18.80;41.60;;;19.44;32.33;95312.09;5051209;28;20435;-54
2022/04/13 07:41:35;;;;;;;22.07;7.20;;;19.00;41.10;;;19.68;32.06;95307.50;5061441;28;21167;-55
2022/04/13 07:44:04;;;;;;;11.90;6.77;;;19.20;40.50;;;19.78;30.83;95312.56;5055643;28;20477;-53
2022/04/13 07:46:31;;;;;;;18.00;7.53;;;19.40;39.50;;;19.82;30.54;95309.34;5061295;28;20472;-56
2022/04/13 07:48:58;;;;;;;12.00;6.90;;;19.40;38.90;;;20.01;31.01;95307.09;5050501;28;20448;-56
2022/04/13 07:51:25;;;;;;;10.77;6.83;;;19.60;39.60;;;20.31;29.57;95313.19;5049009;28;20480;-55
2022/04/13 07:53:53;;;;;;;14.03;7.33;;;19.80;38.30;;;20.48;30.48;95311.09;5057659;28;20450;-56
2022/04/13 07:56:20;;;;;;;11.20;6.47;;;19.90;38.90;;;20.75;29.90;95309.50;5058221;28;20475;-55
2022/04/13 07:58:47;;;;;;;14.60;6.27;;;20.20;38.60;;;21.06;29.69;95307.50;5057868;28;20442;-54
2022/04/13 08:01:16;;;;;;;12.47;6.70;;;20.60;37.70;;;21.39;29.75;95309.56;5055322;28;20500;-56
2022/04/13 08:03:43;;;;;;;14.30;6.40;;;21.10;37.70;;;21.74;29.24;95298.91;5050192;28;20464;-56
2022/04/13 08:06:11;;;;;;;10.67;5.73;;;21.50;37.40;;;22.19;28.54;95302.78;5054206;28;20483;-54
2022/04/13 08:08:38;;;;;;;18.33;6.17;;;22.00;37.30;;;22.63;27.58;95299.81;5048263;28;20474;-54
2022/04/13 08:11:06;;;;;;;10.60;6.60;;;22.40;34.90;;;22.89;27.24;95302.50;5048357;28;21015;-56
2022/04/13 08:13:33;;;;;;;9.90;6.30;;;22.80;35.10;;;23.21;27.35;95301.91;5052054;28;20899;-56
2022/04/13 08:16:01;;;;;;;14.43;6.37;;;23.00;35.30;;;23.69;27.40;95298.09;5055506;28;20777;-57
2022/04/13 08:18:29;;;;;;;9.90;6.17;;;23.50;34.70;;;24.10;25.62;95305.81;5057083;28;20504;-56
2022/04/13 08:20:56;;;;;;;15.00;6.00;;;23.90;32.30;;;24.44;26.44;95306.47;5054960;28;20509;-57
2022/04/13 08:23:24;;;;;;;13.00;5.90;;;24.40;33.70;;;24.75;25.54;95302.16;5052658;28;20452;-55
2022/04/13 08:25:51;;;;;;;9.03;5.70;;;24.80;33.40;;;25.10;25.34;95303.53;5057463;28;20467;-56
2022/04/13 08:28:18;;;;;;;15.63;7.03;;;25.10;32.40;;;25.47;25.31;95304.50;5047159;28;20439;-56
2022/04/13 08:30:46;;;;;;;12.07;6.10;;;25.60;32.10;;;25.72;24.31;95293.66;5051402;28;20475;-55
2022/04/13 08:33:13;;;;;;;21.17;8.97;;;25.90;30.40;;;25.77;24.03;95298.38;5051153;28;20547;-57
2022/04/13 08:35:42;;;;;;;9.47;5.93;;;26.10;31.10;;;25.82;23.24;95298.50;5055771;28;20479;-57
2022/04/13 08:38:09;;;;;;;9.43;5.43;;;26.10;29.70;;;25.74;24.41;95296.94;5055252;28;20503;-57
2022/04/13 08:40:40;;;;;;;11.77;5.30;;;26.10;30.50;;;25.88;23.90;95294.09;5056340;28;21252;-56
2022/04/13 08:43:10;;;;;;;7.40;5.03;;;26.00;30.10;;;25.98;23.16;95289.06;5059948;28;20446;-55
2022/04/13 08:45:41;;;;;;;9.50;4.97;;;26.00;29.80;;;26.02;23.33;95290.22;5055992;28;20510;-56
2022/04/13 08:48:11;;;;;;;10.33;5.70;;;25.90;29.40;;;25.97;23.01;95281.97;5049405;28;20935;-56
2022/04/13 08:50:39;;;;;;;8.93;5.60;;;25.90;28.90;;;25.88;22.55;95294.09;5053562;28;20472;-56
2022/04/13 08:53:12;;;;;;;10.27;5.40;;;25.70;29.30;;;25.79;23.33;95287.38;5057656;28;20601;-56
2022/04/13 08:55:40;;;;;;;10.23;5.00;;;25.60;29.10;;;25.83;23.38;95280.50;5052693;28;20463;-54
2022/04/13 08:58:13;;;;;;;13.30;4.37;;;25.60;29.60;;;25.91;23.06;95280.19;5059062;28;20461;-56
2022/04/13 09:00:45;;;;;;;13.60;5.17;;;25.60;29.20;;;25.92;22.45;95274.56;5057675;28;20498;-55
2022/04/13 09:03:23;;;;;;;9.13;4.00;;;25.60;29.00;;;26.00;22.17;95281.56;5056203;28;20958;-56
2022/04/13 09:05:51;;;;;;;4.13;3.70;;;25.60;29.00;;;26.12;22.53;95278.94;5055963;28;20551;-55
2022/04/13 09:08:22;;;;;;;10.67;5.17;;;25.70;28.30;;;26.10;22.03;95271.06;5056164;28;21041;-55
2022/04/13 09:10:50;;;;;;;4.67;4.00;;;25.70;28.70;;;26.23;22.26;95264.66;5057846;28;20834;-55
2022/04/13 09:13:18;;;;;;;13.40;4.10;;;25.80;28.70;;;26.44;21.48;95266.00;5057860;28;21147;-57
2022/04/13 09:15:45;;;;;;;4.60;3.77;;;25.90;27.80;;;26.58;19.67;95261.25;5060144;28;20508;-55
2022/04/13 09:18:12;;;;;;;4.60;3.77;;;26.10;26.20;;;26.56;20.87;95263.34;5057916;28;20931;-56
2022/04/13 09:20:40;;;;;;;6.70;4.10;;;26.10;26.40;;;26.52;20.51;95264.84;5061641;28;20494;-56
2022/04/13 09:23:07;;;;;;;9.63;3.43;;;26.10;26.00;;;26.46;20.43;95258.53;5050538;28;20462;-56
2022/04/13 09:25:37;;;;;;;12.70;3.50;;;26.00;26.20;;;26.40;20.30;95254.06;5054050;28;20632;-56
2022/04/13 09:28:05;;;;;;;7.40;3.77;;;26.00;26.20;;;26.37;18.68;95259.06;5052243;28;20521;-57
2022/04/13 09:30:34;;;;;;;4.30;3.53;;;25.90;24.80;;;26.22;20.21;95257.63;5057579;28;20478;-55
2022/04/13 09:33:02;;;;;;;6.00;3.40;;;25.80;26.10;;;26.19;20.93;95254.56;5059606;28;20535;-54
2022/04/13 09:35:31;;;;;;;7.30;4.23;;;25.70;26.40;;;26.22;20.57;95256.81;5057741;28;20558;-56
2022/04/13 09:38:01;;;;;;;7.20;3.93;;;25.70;26.10;;;26.27;20.42;95251.53;5062945;28;20459;-57
2022/04/13 09:40:36;;;;;;;5.37;3.77;;;25.80;26.70;;;26.26;19.99;95250.72;5056091;28;20491;-56
2022/04/13 09:43:08;;;;;;;4.00;3.70;;;25.80;26.00;;;26.24;18.86;95246.59;5057039;28;20466;-55
2022/04/13 09:45:37;;;;;;;4.27;3.87;;;25.80;25.30;;;26.25;19.82;95246.38;5057994;28;20551;-56
2022/04/13 09:48:09;;;;;;;3.80;3.50;;;25.80;25.80;;;26.24;20.33;95243.91;5056764;28;20448;-56
2022/04/13 09:50:37;;;;;;;4.70;3.17;;;25.70;26.50;;;26.36;19.94;95244.75;5063105;28;20915;-56
2022/04/13 09:53:05;;;;;;;4.07;3.63;;;25.80;25.60;;;26.41;20.37;95244.06;5058213;28;20467;-56
2022/04/13 09:55:40;;;;;;;5.20;2.90;;;25.90;26.50;;;26.42;20.42;95235.75;5061491;28;20551;-56
2022/04/13 09:58:09;;;;;;;3.60;2.90;;;25.90;26.20;;;26.24;20.12;95233.13;5061670;28;20855;-56
2022/04/13 10:00:37;;;;;;;4.73;3.33;;;25.80;26.10;;;25.75;19.93;95230.44;5061599;28;20949;-55
2022/04/13 10:03:15;;;;;;;7.40;4.13;;;25.50;25.90;;;25.38;20.41;95220.47;5055123;28;20451;-57
2022/04/13 10:05:46;;;;;;;5.93;4.20;;;25.10;25.80;;;25.35;20.80;95220.91;5054900;28;20507;-57
2022/04/13 10:08:14;;;;;;;4.73;3.57;;;24.90;26.80;;;25.46;20.80;95232.00;5058543;28;20450;-58
2022/04/13 10:10:45;;;;;;;3.37;3.07;;;25.00;26.80;;;25.49;20.20;95229.69;5061509;28;20487;-55
2022/04/13 10:13:14;;;;;;;11.20;3.80;;;25.00;26.20;;;25.46;20.71;95223.91;5060751;28;20481;-55
2022/04/13 10:15:41;;;;;;;3.37;3.07;;;25.00;26.50;;;25.47;20.06;95223.69;5058635;28;20475;-55
2022/04/13 10:18:09;;;;;;;8.53;3.30;;;24.90;26.50;;;25.46;19.98;95215.84;5058075;28;20451;-57
2022/04/13 10:20:43;;;;;;;4.70;3.40;;;25.00;26.60;;;25.33;20.26;95220.31;5057008;28;20467;-57
2022/04/13 10:23:10;;;;;;;3.77;3.20;;;24.90;26.50;;;25.37;21.05;95224.19;5056903;28;20489;-57
2022/04/13 10:25:38;;;;;;;4.03;3.03;;;24.90;26.80;;;25.45;21.06;95223.06;5057791;28;20471;-55